Sunset Valley, TX

3:06 AM CDT on April 28, 2015 (GMT -0500)
Austin Bergstrom International | | Change Station
CLOSE
Current Station
Airport
Location: Austin Bergstrom,
Elevation: 541 ft
Nearby Weather Stations

Elev 541 ft 30.19 °N, 97.67 °W | Updated 13 minutes ago

Overcast
Overcast
64 °F
Feels Like 64 °F
N
15
Wind Variable Wind from North

Today
High -- | Low -- °F
--% Chance of Precip.
Yesterday
High -- | Low -- °F
Precip. -- in
6:51 AM 8:07 PM
Waxing Gibbous, 72% visible
Pressure 29.83 in
Visibility 10.0 miles
Clouds Mostly Cloudy 1400 ft
Dew Point 59 °F
Humidity 84%
Rainfall 0.00 in
Snow Depth Not available.
UV 0 out of 12
Pollen 7.10 out of 12
Air Quality Not available.
Flu Activity Local Activity
METAR KAUS 280753Z 01013KT 10SM BKN014 18/15 A2985 RMK AO2 SLP099 T01780150

More Conditions Fewer Conditions

Pressure 29.83 in
Visibility 10.0 miles
Clouds Mostly Cloudy 1400 ft
Dew Point 59 °F
Humidity 84%
Rainfall 0.00 in
Snow Depth Not available.
UV 0 out of 12
Pollen 7.10 out of 12
Air Quality Not available.
Flu Activity Local Activity
METAR KAUS 280753Z 01013KT 10SM BKN014 18/15 A2985 RMK AO2 SLP099 T01780150

More Conditions Fewer Conditions

10-Day Weather Forecast

Almanac

Astronomy

Apr. 28, 2015 Rise Set
Actual Time
Civil Twilight
Nautical Twilight
Astronomical Twilight
Moon
Length of Visible Light
Length of Day
Tomorrow will be .
, % of the Moon is Illuminated

Today's Extremes

State Highs State Lows

Community

WunderPhotos

Upload Photos

1,817,597 photos uploaded!

WunderBlogs® & News

Nearby

Air Quality

  Air Quality AQ Index Pollutant
Not available.

Snow Depth

Station Depth Elevation

Earthquake Activity

City Distance Mag. Time & Date
Minimum magnitude displayed is 2.5.

Coastal Water Temperatures

Place Temperature

Stations

Nearby Weather Stations

Station Location Temp. Windchill Dew Point Humidity Wind Precip. Elev Updated Type